Time;durP1;ratioP1;P1;durP2;ratioP2;P2;SDS_P1;SDS_P2;PMS_P1;PMS_P2;Temp;Humidity;BMP_temperature;BMP_pressure;BME280_temperature;BME280_humidity;BME280_pressure;Samples;Min_cycle;Max_cycle;Signal;HPM_P1;HPM_P2
2023/12/30 00:01:59;;;;;;;9.65;3.08;;;;;;;10.72;88.44;100284.94;4940584;29;20103;-81
2023/12/30 00:04:29;;;;;;;10.75;3.60;;;;;;;10.79;88.32;100282.50;4939570;29;20466;-80
2023/12/30 00:06:55;;;;;;;13.98;3.83;;;;;;;10.87;87.89;100278.03;4938637;29;20043;-80
2023/12/30 00:09:22;;;;;;;12.40;3.47;;;;;;;10.74;87.96;100275.13;4937063;29;20126;-79
2023/12/30 00:11:54;;;;;;;9.88;3.15;;;;;;;10.85;87.77;100287.88;4937594;29;20139;-79
2023/12/30 00:14:21;;;;;;;13.50;3.15;;;;;;;10.71;87.68;100280.69;4936690;29;20126;-79
2023/12/30 00:16:47;;;;;;;12.93;3.42;;;;;;;10.84;87.36;100286.25;4936588;29;20051;-80
2023/12/30 00:19:14;;;;;;;10.70;3.13;;;;;;;10.89;87.24;100283.94;4938734;29;20051;-80
2023/12/30 00:21:40;;;;;;;16.13;3.28;;;;;;;10.97;86.71;100283.91;4939076;29;20471;-81
2023/12/30 00:24:07;;;;;;;11.45;3.47;;;;;;;11.06;86.40;100289.13;4939782;29;20066;-81
2023/12/30 00:26:34;;;;;;;14.02;3.80;;;;;;;11.04;86.43;100275.41;4947453;29;20134;-80
2023/12/30 00:29:02;;;;;;;11.25;3.58;;;;;;;11.09;86.48;100292.25;4939264;29;20142;-80
2023/12/30 00:31:30;;;;;;;15.20;4.20;;;;;;;11.05;86.47;100284.88;4946578;29;20086;-81
2023/12/30 00:33:57;;;;;;;13.38;3.40;;;;;;;11.04;86.29;100286.69;4947282;29;20106;-79
2023/12/30 00:36:24;;;;;;;14.50;3.97;;;;;;;11.07;86.64;100265.41;4931688;29;20063;-80
2023/12/30 00:38:53;;;;;;;13.05;3.40;;;;;;;11.15;86.10;100285.53;4938004;29;20083;-80
2023/12/30 00:41:19;;;;;;;15.90;4.15;;;;;;;11.16;86.33;100290.59;4940609;29;20058;-80
2023/12/30 00:43:46;;;;;;;18.88;4.97;;;;;;;10.98;86.31;100289.97;4943781;29;20110;-81
2023/12/30 00:46:14;;;;;;;17.90;4.03;;;;;;;11.11;86.56;100295.50;4940335;29;20135;-81
2023/12/30 00:48:40;;;;;;;14.55;3.85;;;;;;;10.96;87.06;100295.38;4943567;29;20059;-81
2023/12/30 00:51:07;;;;;;;17.27;4.18;;;;;;;10.98;86.74;100306.50;4942458;29;20079;-81
2023/12/30 00:53:34;;;;;;;12.45;3.40;;;;;;;11.05;86.59;100303.22;4956255;29;20074;-81
2023/12/30 00:56:00;;;;;;;12.05;3.65;;;;;;;10.87;86.69;100306.84;4939508;29;20076;-80
2023/12/30 00:58:27;;;;;;;10.52;3.90;;;;;;;10.89;86.83;100312.72;4938434;29;20594;-81
2023/12/30 01:00:53;;;;;;;9.73;3.55;;;;;;;10.83;87.17;100321.25;4939595;29;20055;-80
2023/12/30 01:03:21;;;;;;;16.25;4.28;;;;;;;10.92;87.05;100328.09;4948522;29;20063;-80
2023/12/30 01:05:48;;;;;;;19.98;3.85;;;;;;;10.73;87.46;100323.22;4939452;29;20060;-80
2023/12/30 01:08:15;;;;;;;15.85;3.90;;;;;;;10.96;87.14;100329.41;4940792;29;20075;-81
2023/12/30 01:10:41;;;;;;;16.00;4.10;;;;;;;11.04;86.83;100322.53;4945134;29;20080;-82
2023/12/30 01:13:10;;;;;;;16.25;4.20;;;;;;;11.00;86.91;100315.97;4943829;29;20079;-81
2023/12/30 01:15:37;;;;;;;18.83;3.70;;;;;;;11.00;86.77;100326.47;4943180;29;20051;-81
2023/12/30 01:18:04;;;;;;;14.35;4.07;;;;;;;11.00;87.09;100326.47;4942292;29;20082;-82
2023/12/30 01:20:32;;;;;;;11.95;3.72;;;;;;;10.90;87.04;100337.09;4947665;29;20083;-81
2023/12/30 01:22:59;;;;;;;15.50;3.60;;;;;;;10.86;87.48;100338.44;4948228;29;20580;-80
2023/12/30 01:25:25;;;;;;;11.45;3.60;;;;;;;10.71;87.41;100330.41;4950327;29;20094;-81
2023/12/30 01:27:52;;;;;;;13.13;3.75;;;;;;;10.60;87.82;100338.59;4942413;29;20115;-79
2023/12/30 01:30:19;;;;;;;19.63;4.28;;;;;;;10.66;87.71;100334.50;4949829;29;20548;-81
2023/12/30 01:32:45;;;;;;;16.70;3.88;;;;;;;10.76;87.87;100350.88;4941879;29;20058;-81
2023/12/30 01:35:12;;;;;;;13.02;4.00;;;;;;;10.68;87.72;100338.59;4950267;29;20058;-81
2023/12/30 01:37:40;;;;;;;13.43;3.88;;;;;;;10.86;87.35;100339.25;4941924;29;20542;-81
2023/12/30 01:40:08;;;;;;;14.98;4.22;;;;;;;10.57;87.59;100331.06;4942598;29;20464;-81
2023/12/30 01:42:35;;;;;;;14.93;3.72;;;;;;;10.62;87.45;100336.63;4957191;29;20055;-80
2023/12/30 01:45:02;;;;;;;12.40;3.83;;;;;;;10.52;87.44;100343.81;4955531;29;20048;-80
2023/12/30 01:47:28;;;;;;;12.40;3.78;;;;;;;10.63;87.49;100346.13;4958398;29;20054;-80
2023/12/30 01:49:55;;;;;;;19.20;4.30;;;;;;;10.72;86.93;100350.38;4956915;29;20075;-82
2023/12/30 01:52:22;;;;;;;16.75;4.28;;;;;;;10.67;87.52;100357.06;4942282;29;20134;-82
2023/12/30 01:54:50;;;;;;;10.18;3.45;;;;;;;10.80;87.46;100370.50;4942325;29;20055;-82
2023/12/30 01:57:17;;;;;;;13.90;3.53;;;;;;;10.80;87.31;100383.59;4941684;29;20506;-82
2023/12/30 01:59:45;;;;;;;12.30;3.95;;;;;;;10.89;87.60;100390.44;4941904;29;20047;-81
2023/12/30 02:02:12;;;;;;;13.38;3.75;;;;;;;10.62;88.28;100383.72;4941910;29;20087;-81
2023/12/30 02:04:39;;;;;;;14.77;3.70;;;;;;;10.74;89.54;100398.13;4947608;29;20134;-81
2023/12/30 02:07:06;;;;;;;15.02;3.70;;;;;;;10.71;89.81;100411.53;4944843;29;20079;-81
2023/12/30 02:09:32;;;;;;;10.57;3.70;;;;;;;10.75;89.59;100410.25;4948184;29;20180;-81
2023/12/30 02:12:01;;;;;;;10.60;3.35;;;;;;;10.60;89.66;100411.84;4941964;29;20079;-80
2023/12/30 02:14:29;;;;;;;13.85;4.07;;;;;;;10.60;89.68;100410.06;4949723;29;20083;-81
2023/12/30 02:16:56;;;;;;;15.30;4.80;;;;;;;10.63;89.83;100416.75;4940713;29;20047;-81
2023/12/30 02:19:23;;;;;;;12.48;4.03;;;;;;;10.66;89.71;100413.00;4948081;28;20404;-82
2023/12/30 02:21:50;;;;;;;16.75;4.45;;;;;;;10.64;89.99;100418.41;4941224;29;20130;-82
2023/12/30 02:24:19;;;;;;;14.20;4.10;;;;;;;10.68;90.21;100417.09;4940367;29;20111;-81
2023/12/30 02:26:46;;;;;;;10.15;3.58;;;;;;;10.74;89.95;100413.84;4948445;29;20055;-82
2023/12/30 02:29:13;;;;;;;9.48;3.70;;;;;;;10.66;89.79;100421.69;4940528;29;20448;-81
2023/12/30 02:31:45;;;;;;;12.20;3.63;;;;;;;10.49;90.20;100418.22;4946994;29;20441;-82
2023/12/30 02:34:12;;;;;;;10.20;3.25;;;;;;;10.50;90.22;100424.25;4942883;29;20067;-81
2023/12/30 02:36:39;;;;;;;12.15;3.80;;;;;;;10.62;89.72;100422.97;4941257;29;20150;-81
2023/12/30 02:39:06;;;;;;;14.70;3.40;;;;;;;10.50;89.50;100413.78;4949109;29;20164;-80
2023/12/30 02:41:34;;;;;;;13.48;3.72;;;;;;;10.64;89.37;100431.50;4939664;29;20102;-79
2023/12/30 02:44:02;;;;;;;11.88;3.55;;;;;;;10.43;89.46;100416.22;4937701;29;20056;-79
2023/12/30 02:46:29;;;;;;;11.52;3.50;;;;;;;10.40;89.30;100410.53;4937252;29;20138;-79
2023/12/30 02:48:56;;;;;;;11.68;3.75;;;;;;;10.37;88.86;100410.84;4936308;29;20087;-79
2023/12/30 02:51:23;;;;;;;16.80;3.33;;;;;;;10.58;88.09;100413.81;4936611;29;20062;-79
2023/12/30 02:53:49;;;;;;;10.88;3.30;;;;;;;10.57;87.58;100404.31;4937087;29;20465;-80
2023/12/30 02:56:19;;;;;;;14.57;3.72;;;;;;;10.60;87.91;100414.47;4936961;29;20142;-79
2023/12/30 02:58:49;;;;;;;15.18;4.25;;;;;;;10.48;87.98;100413.13;4935959;29;20055;-79
2023/12/30 03:01:16;;;;;;;12.45;4.50;;;;;;;10.69;87.30;100403.03;4936212;29;20103;-79
2023/12/30 03:03:43;;;;;;;16.05;3.85;;;;;;;10.67;87.49;100399.75;4935732;29;20048;-79
2023/12/30 03:06:10;;;;;;;14.20;3.40;;;;;;;10.55;87.12;100409.72;4935536;29;20134;-78
2023/12/30 03:08:36;;;;;;;16.05;3.55;;;;;;;10.80;86.61;100415.81;4935055;29;20130;-78
2023/12/30 03:11:04;;;;;;;17.75;3.95;;;;;;;10.68;86.71;100411.88;4936312;29;20054;-79
2023/12/30 03:13:31;;;;;;;12.10;3.25;;;;;;;10.58;86.86;100421.66;4936757;29;20059;-79
2023/12/30 03:15:58;;;;;;;15.82;3.75;;;;;;;10.54;87.38;100425.56;4937283;29;20115;-79
2023/12/30 03:18:25;;;;;;;11.93;3.90;;;;;;;10.46;87.63;100429.00;4935898;29;20075;-79
2023/12/30 03:20:52;;;;;;;12.27;3.47;;;;;;;10.44;87.33;100430.13;4936981;29;20083;-79
2023/12/30 03:23:19;;;;;;;15.10;3.72;;;;;;;10.62;87.71;100439.50;4936915;29;20530;-79
2023/12/30 03:25:45;;;;;;;15.93;3.60;;;;;;;10.62;87.55;100433.44;4937341;29;20111;-79
2023/12/30 03:28:12;;;;;;;15.07;3.92;;;;;;;10.63;87.14;100420.19;4935708;29;20052;-79
2023/12/30 03:30:39;;;;;;;11.98;3.42;;;;;;;10.60;87.45;100431.00;4937032;29;20143;-79
2023/12/30 03:33:06;;;;;;;14.55;3.40;;;;;;;10.69;87.54;100433.63;4937272;29;20126;-80
2023/12/30 03:35:34;;;;;;;14.88;3.67;;;;;;;10.71;87.36;100442.94;4941972;29;20062;-79
2023/12/30 03:38:00;;;;;;;9.90;3.22;;;;;;;10.61;87.27;100430.00;4942514;29;20047;-78
2023/12/30 03:40:27;;;;;;;14.30;4.72;;;;;;;10.73;87.48;100435.75;4946286;29;20075;-79
2023/12/30 03:42:54;;;;;;;14.23;3.63;;;;;;;10.74;87.71;100450.47;4944390;29;20125;-79
2023/12/30 03:45:20;;;;;;;15.60;3.95;;;;;;;10.63;88.61;100440.31;4937628;29;20082;-79
2023/12/30 03:47:47;;;;;;;15.95;4.03;;;;;;;10.34;90.46;100450.41;4935222;29;20466;-78
2023/12/30 03:50:15;;;;;;;15.20;3.85;;;;;;;10.29;91.07;100449.06;4934833;29;20439;-78
2023/12/30 03:52:42;;;;;;;15.48;4.25;;;;;;;10.43;91.34;100462.50;4936218;29;20090;-79
2023/12/30 03:55:09;;;;;;;13.68;3.75;;;;;;;10.52;91.34;100453.69;4936417;29;20158;-79
2023/12/30 03:57:35;;;;;;;14.45;4.20;;;;;;;10.56;90.98;100449.78;4945382;29;20158;-79
2023/12/30 04:00:02;;;;;;;14.55;4.13;;;;;;;10.46;90.80;100455.16;4942704;29;20080;-79
2023/12/30 04:02:29;;;;;;;11.90;3.97;;;;;;;10.59;91.06;100450.28;4941810;29;20114;-79
2023/12/30 04:04:56;;;;;;;16.40;3.92;;;;;;;10.51;91.24;100437.19;4939797;29;20402;-79
2023/12/30 04:07:23;;;;;;;13.07;3.67;;;;;;;10.58;90.67;100446.03;4937418;29;20110;-80
2023/12/30 04:09:50;;;;;;;14.57;3.67;;;;;;;10.55;90.58;100448.16;4943422;29;20131;-81
2023/12/30 04:12:17;;;;;;;12.82;3.50;;;;;;;10.45;90.48;100442.22;4938980;29;20058;-82
2023/12/30 04:14:45;;;;;;;19.83;3.88;;;;;;;10.66;89.73;100445.22;4947436;29;20052;-80
2023/12/30 04:17:11;;;;;;;12.70;3.67;;;;;;;10.59;89.59;100439.81;4939246;29;20047;-80
2023/12/30 04:19:38;;;;;;;22.20;4.30;;;;;;;10.37;89.79;100443.06;4945921;29;20143;-80
2023/12/30 04:22:04;;;;;;;20.45;4.60;;;;;;;10.59;89.22;100446.84;4939764;29;20075;-80
2023/12/30 04:24:32;;;;;;;17.92;4.68;;;;;;;10.63;89.37;100437.69;4947138;29;20063;-81
2023/12/30 04:26:58;;;;;;;15.63;4.28;;;;;;;10.70;88.60;100443.94;4947244;29;20095;-81
2023/12/30 04:29:26;;;;;;;9.73;3.80;;;;;;;10.80;88.31;100443.78;4938766;29;20079;-81
2023/12/30 04:31:52;;;;;;;13.48;3.78;;;;;;;10.80;88.00;100442.00;4946960;29;20055;-81
2023/12/30 04:34:21;;;;;;;14.05;3.83;;;;;;;10.68;88.60;100448.50;4939914;29;20084;-81
2023/12/30 04:36:47;;;;;;;20.67;4.35;;;;;;;10.76;88.66;100458.16;4939613;29;20094;-81
2023/12/30 04:39:14;;;;;;;15.38;4.00;;;;;;;10.69;88.69;100450.16;4939042;29;20138;-80
2023/12/30 04:41:42;;;;;;;12.57;3.92;;;;;;;10.71;88.86;100468.31;4939377;29;20443;-80
2023/12/30 04:44:08;;;;;;;17.05;4.00;;;;;;;10.84;88.64;100469.47;4942760;29;20119;-81
2023/12/30 04:46:35;;;;;;;17.40;4.07;;;;;;;10.57;88.50;100451.41;4950350;29;20074;-81
2023/12/30 04:49:02;;;;;;;14.57;4.32;;;;;;;10.79;88.29;100463.91;4942696;29;20047;-80
2023/12/30 04:51:29;;;;;;;13.45;3.67;;;;;;;10.71;88.26;100463.88;4943360;29;20104;-81
2023/12/30 04:53:56;;;;;;;10.82;4.38;;;;;;;10.64;88.37;100462.88;4949901;29;20482;-80
2023/12/30 04:56:23;;;;;;;15.45;3.90;;;;;;;10.73;88.03;100461.94;4943263;29;20055;-80
2023/12/30 04:58:51;;;;;;;11.48;4.60;;;;;;;10.92;87.59;100466.03;4951054;29;20115;-80
2023/12/30 05:01:18;;;;;;;15.23;4.10;;;;;;;10.90;87.36;100470.59;4942920;29;20051;-80
2023/12/30 05:03:45;;;;;;;14.00;3.67;;;;;;;11.02;87.15;100476.34;4945181;29;20184;-81
2023/12/30 05:06:19;;;;;;;14.15;3.90;;;;;;;10.97;86.95;100469.78;4941965;29;20139;-80
2023/12/30 05:08:46;;;;;;;13.25;3.50;;;;;;;10.86;87.12;100464.09;4941288;29;20048;-80
2023/12/30 05:11:12;;;;;;;17.02;4.13;;;;;;;10.79;86.88;100460.47;4941886;29;20058;-80
2023/12/30 05:13:39;;;;;;;18.83;3.55;;;;;;;10.78;86.97;100470.13;4941428;29;20110;-80
2023/12/30 05:16:07;;;;;;;18.67;3.92;;;;;;;10.78;87.22;100472.75;4941819;29;20077;-79
2023/12/30 05:18:34;;;;;;;17.23;4.90;;;;;;;10.74;87.60;100479.28;4944312;29;20467;-80
2023/12/30 05:21:01;;;;;;;14.82;3.80;;;;;;;10.85;86.98;100470.31;4944719;29;20094;-80
2023/12/30 05:23:27;;;;;;;18.17;3.85;;;;;;;10.46;87.15;100475.25;4940901;29;20051;-79
2023/12/30 05:25:54;;;;;;;16.08;4.18;;;;;;;10.45;87.97;100481.47;4940503;29;20134;-79
2023/12/30 05:28:21;;;;;;;16.58;3.83;;;;;;;10.51;87.73;100484.28;4938428;29;20111;-79
2023/12/30 05:30:47;;;;;;;12.77;4.57;;;;;;;10.57;87.96;100490.66;4939774;29;20138;-79
2023/12/30 05:33:15;;;;;;;16.73;3.78;;;;;;;10.47;87.77;100500.44;4939347;29;20602;-79
2023/12/30 05:35:42;;;;;;;15.57;4.00;;;;;;;10.53;87.93;100497.19;4941474;29;20138;-79
2023/12/30 05:38:12;;;;;;;15.18;3.53;;;;;;;10.49;87.82;100501.09;4940417;29;20039;-79
2023/12/30 05:40:39;;;;;;;22.67;4.40;;;;;;;10.43;88.36;100502.56;4941879;29;20083;-79
2023/12/30 05:43:06;;;;;;;11.93;3.75;;;;;;;10.44;88.48;100504.19;4941926;29;20079;-79
2023/12/30 05:45:32;;;;;;;20.35;4.55;;;;;;;10.45;88.52;100505.81;4946793;29;20106;-79
2023/12/30 05:47:59;;;;;;;13.88;3.90;;;;;;;10.39;88.56;100510.91;4945038;29;20443;-79
2023/12/30 05:50:27;;;;;;;15.63;3.85;;;;;;;10.57;88.59;100508.97;4933062;29;20111;-79
2023/12/30 05:52:54;;;;;;;14.82;3.53;;;;;;;10.61;88.36;100512.91;4942009;29;20090;-79
2023/12/30 05:55:21;;;;;;;14.98;3.88;;;;;;;10.70;88.59;100514.59;4944657;29;20438;-79
2023/12/30 05:57:48;;;;;;;13.75;4.10;;;;;;;10.61;88.56;100502.44;4941654;29;20052;-79
2023/12/30 06:00:15;;;;;;;18.80;4.25;;;;;;;10.54;88.52;100511.91;4941577;29;20072;-80
2023/12/30 06:02:43;;;;;;;16.17;4.50;;;;;;;10.44;89.04;100509.41;4947404;29;20499;-79
2023/12/30 06:05:10;;;;;;;15.70;3.97;;;;;;;10.51;88.68;100517.47;4942875;29;20134;-80
2023/12/30 06:07:39;;;;;;;15.00;4.45;;;;;;;10.45;88.87;100528.56;4949910;29;20115;-80
2023/12/30 06:10:07;;;;;;;19.02;3.85;;;;;;;10.51;88.72;100526.13;4946472;29;20071;-79
2023/12/30 06:12:33;;;;;;;13.80;3.75;;;;;;;10.67;88.47;100528.00;4950758;29;20084;-79
2023/12/30 06:15:00;;;;;;;15.20;4.55;;;;;;;10.58;88.40;100531.56;4952543;29;20071;-80
2023/12/30 06:17:26;;;;;;;22.30;6.85;;;;;;;10.49;88.22;100535.94;4948804;29;20059;-79
2023/12/30 06:19:53;;;;;;;22.90;8.32;;;;;;;10.76;88.11;100534.91;4942904;29;20518;-79
2023/12/30 06:22:20;;;;;;;13.30;4.03;;;;;;;10.81;87.75;100537.84;4944483;29;20059;-79
2023/12/30 06:24:48;;;;;;;14.52;3.92;;;;;;;10.68;88.12;100532.25;4947569;29;20154;-79
2023/12/30 06:27:14;;;;;;;19.10;4.90;;;;;;;10.79;88.08;100528.53;4950354;29;20089;-79
2023/12/30 06:29:41;;;;;;;13.60;4.50;;;;;;;10.54;88.25;100530.22;4941530;29;20082;-79
2023/12/30 06:32:08;;;;;;;12.32;5.35;;;;;;;10.72;88.44;100530.13;4951349;29;20451;-79
2023/12/30 06:34:35;;;;;;;18.38;4.78;;;;;;;10.59;88.63;100533.19;4945089;29;20083;-79
2023/12/30 06:37:02;;;;;;;20.02;4.40;;;;;;;10.66;88.39;100533.38;4941676;29;20066;-79
2023/12/30 06:39:28;;;;;;;13.80;3.90;;;;;;;10.67;88.10;100545.50;4946680;29;20111;-79
2023/12/30 06:41:59;;;;;;;14.63;4.00;;;;;;;10.70;88.14;100551.22;4939879;29;20134;-79
2023/12/30 06:44:25;;;;;;;13.18;3.78;;;;;;;10.67;88.30;100546.31;4931922;29;20062;-79
2023/12/30 06:46:52;;;;;;;15.60;4.22;;;;;;;10.78;87.70;100553.88;4938158;29;20052;-78
2023/12/30 06:49:19;;;;;;;12.85;3.85;;;;;;;10.66;87.69;100549.09;4938196;29;20052;-79
2023/12/30 06:51:46;;;;;;;13.07;3.88;;;;;;;10.81;87.85;100555.34;4939617;29;20123;-79
2023/12/30 06:54:12;;;;;;;14.05;3.90;;;;;;;10.88;87.30;100553.72;4939835;29;20055;-79
2023/12/30 06:56:39;;;;;;;12.77;3.63;;;;;;;10.87;87.44;100562.56;4939815;29;20075;-79
2023/12/30 06:59:07;;;;;;;10.90;3.92;;;;;;;10.96;87.16;100561.59;4938653;29;20052;-79
2023/12/30 07:01:39;;;;;;;13.02;3.88;;;;;;;10.88;87.67;100564.19;4939517;29;20086;-79
2023/12/30 07:04:05;;;;;;;12.73;3.70;;;;;;;10.84;87.00;100568.94;4939839;29;20058;-78
2023/12/30 07:06:32;;;;;;;16.58;3.83;;;;;;;10.69;87.39;100562.66;4939087;29;20468;-80
2023/12/30 07:08:59;;;;;;;12.23;3.60;;;;;;;10.69;87.39;100565.28;4937435;29;20191;-78
2023/12/30 07:11:25;;;;;;;14.05;3.95;;;;;;;10.74;86.99;100586.56;4939834;29;20494;-78
2023/12/30 07:13:52;;;;;;;17.25;3.90;;;;;;;10.53;87.05;100588.75;4939221;29;20126;-79
2023/12/30 07:16:20;;;;;;;16.73;3.90;;;;;;;10.74;87.10;100583.97;4938363;29;20131;-79
2023/12/30 07:18:46;;;;;;;15.70;3.63;;;;;;;10.74;86.69;100583.97;4943497;29;20130;-81
2023/12/30 07:21:16;;;;;;;13.90;3.83;;;;;;;10.68;86.83;100579.34;4940871;29;20135;-80
2023/12/30 07:23:43;;;;;;;16.42;3.90;;;;;;;10.50;86.63;100589.06;4947320;29;20083;-80
2023/12/30 07:26:09;;;;;;;14.40;3.72;;;;;;;10.55;86.57;100589.44;4938498;29;20056;-80
2023/12/30 07:28:36;;;;;;;13.32;4.32;;;;;;;10.28;86.75;100591.28;4945698;29;20130;-80
2023/12/30 07:31:03;;;;;;;20.48;4.70;;;;;;;10.46;86.79;100595.59;4946348;29;20444;-80
2023/12/30 07:33:31;;;;;;;12.93;3.70;;;;;;;10.54;86.64;100595.63;4938232;29;20094;-80
2023/12/30 07:35:57;;;;;;;12.18;4.15;;;;;;;10.50;86.72;100591.69;4938453;29;20090;-79
2023/12/30 07:38:24;;;;;;;11.13;3.42;;;;;;;10.57;87.17;100597.94;4947639;29;20130;-80
2023/12/30 07:40:50;;;;;;;11.73;3.92;;;;;;;10.49;87.01;100585.63;4946064;29;20051;-79
2023/12/30 07:43:17;;;;;;;10.05;3.65;;;;;;;10.60;86.79;100592.41;4940998;29;20055;-79
2023/12/30 07:45:44;;;;;;;19.80;4.45;;;;;;;10.61;86.97;100599.28;4938286;29;20142;-79
2023/12/30 07:48:10;;;;;;;11.63;3.88;;;;;;;10.64;86.66;100604.19;4938008;29;20379;-79
2023/12/30 07:50:38;;;;;;;10.68;4.22;;;;;;;10.63;87.12;100613.84;4939061;29;20052;-81
2023/12/30 07:53:05;;;;;;;10.90;4.00;;;;;;;10.50;87.26;100612.63;4940467;29;20083;-81
2023/12/30 07:55:31;;;;;;;13.85;3.92;;;;;;;10.44;87.15;100610.63;4951981;29;20126;-80
2023/12/30 07:57:58;;;;;;;14.15;4.18;;;;;;;10.50;87.22;100610.00;4945385;29;20054;-80
2023/12/30 08:00:25;;;;;;;15.07;4.60;;;;;;;10.60;87.21;100616.75;4939629;29;20511;-80
2023/12/30 08:02:52;;;;;;;18.13;4.38;;;;;;;10.37;86.87;100604.41;4948066;29;20530;-81
2023/12/30 08:05:19;;;;;;;17.42;4.38;;;;;;;10.53;87.34;100620.97;4948012;29;20094;-81
2023/12/30 08:07:46;;;;;;;14.85;4.53;;;;;;;10.40;87.65;100623.19;4942619;29;20090;-81
2023/12/30 08:10:16;;;;;;;13.13;4.13;;;;;;;10.41;87.80;100635.28;4936975;29;20456;-81
2023/12/30 08:13:09;;;;;;;18.27;4.63;;;;;;;10.54;88.13;100650.56;4939735;29;20471;-81
2023/12/30 08:15:36;;;;;;;14.50;4.38;;;;;;;10.59;87.92;100635.25;4941811;29;20052;-81
2023/12/30 08:18:03;;;;;;;15.40;4.28;;;;;;;10.62;87.71;100642.78;4949534;28;20131;-81
2023/12/30 08:20:30;;;;;;;15.30;6.03;;;;;;;10.57;87.94;100635.38;4950615;29;20219;-81
2023/12/30 08:22:58;;;;;;;15.27;3.95;;;;;;;10.46;88.01;100640.06;4946356;29;20525;-79
2023/12/30 08:25:25;;;;;;;17.15;5.15;;;;;;;10.66;87.80;100649.34;4950409;29;20075;-81
2023/12/30 08:27:51;;;;;;;11.55;4.10;;;;;;;10.60;87.75;100648.16;4949995;29;20127;-81
2023/12/30 08:30:26;;;;;;;11.80;4.10;;;;;;;10.65;87.77;100645.09;4957463;29;20047;-81
2023/12/30 08:32:53;;;;;;;16.10;5.38;;;;;;;10.84;87.57;100649.28;4945743;29;20048;-81
2023/12/30 08:35:20;;;;;;;14.57;4.38;;;;;;;10.84;87.24;100652.72;4952064;29;20056;-82
2023/12/30 08:37:47;;;;;;;17.02;5.05;;;;;;;10.76;87.48;100646.63;4942035;29;20124;-81
2023/12/30 08:40:16;;;;;;;11.63;4.28;;;;;;;10.87;87.44;100654.19;4940444;29;20047;-81
2023/12/30 08:42:44;;;;;;;10.77;4.00;;;;;;;10.85;87.05;100649.13;4941407;29;20558;-80
2023/12/30 08:45:17;;;;;;;17.48;4.55;;;;;;;11.01;86.75;100652.75;4945561;29;20051;-80
2023/12/30 08:47:44;;;;;;;9.60;4.03;;;;;;;11.08;86.64;100657.22;4941850;29;20115;-81
2023/12/30 08:50:12;;;;;;;16.27;4.80;;;;;;;11.13;86.42;100661.97;4947974;29;20067;-82
2023/12/30 08:52:38;;;;;;;16.42;4.50;;;;;;;11.26;86.13;100654.50;4939084;29;20131;-82
2023/12/30 08:55:11;;;;;;;22.05;5.20;;;;;;;11.23;85.85;100641.72;4938528;29;20519;-81
2023/12/30 08:57:39;;;;;;;12.45;3.88;;;;;;;11.37;85.39;100643.69;4941918;29;20062;-82
2023/12/30 09:00:08;;;;;;;13.38;4.82;;;;;;;11.32;85.27;100646.00;4953169;29;20071;-81
2023/12/30 09:02:35;;;;;;;23.23;4.90;;;;;;;11.18;84.95;100652.66;4944281;29;20051;-81
2023/12/30 09:05:02;;;;;;;15.77;4.75;;;;;;;11.27;84.81;100656.13;4951802;29;20102;-81
2023/12/30 09:07:29;;;;;;;22.23;5.93;;;;;;;11.34;85.05;100662.38;4945162;29;20059;-81
2023/12/30 09:09:56;;;;;;;13.68;4.95;;;;;;;11.24;85.21;100667.75;4952513;29;20517;-83
2023/12/30 09:12:22;;;;;;;14.40;4.47;;;;;;;11.31;84.85;100670.56;4951730;29;20134;-82
2023/12/30 09:14:50;;;;;;;16.17;5.15;;;;;;;11.33;84.66;100663.34;4948469;29;20494;-81
2023/12/30 09:17:17;;;;;;;14.45;4.22;;;;;;;11.32;84.72;100666.13;4944519;29;20471;-82
2023/12/30 09:19:44;;;;;;;16.38;5.25;;;;;;;11.35;84.56;100653.50;4940984;29;20052;-83
2023/12/30 09:22:16;;;;;;;16.00;4.13;;;;;;;11.28;84.33;100658.59;4949445;29;20130;-82
2023/12/30 09:24:43;;;;;;;14.20;4.40;;;;;;;11.36;84.57;100662.19;4942548;29;20055;-82
2023/12/30 09:27:09;;;;;;;10.32;3.72;;;;;;;11.43;84.50;100674.47;4942327;29;20052;-82
2023/12/30 09:29:36;;;;;;;13.73;4.32;;;;;;;11.32;84.85;100672.19;4942394;29;20434;-83
2023/12/30 09:32:05;;;;;;;12.98;5.30;;;;;;;11.59;84.05;100671.09;4942478;29;20115;-83
2023/12/30 09:34:31;;;;;;;10.38;3.80;;;;;;;11.62;83.67;100673.38;4943976;29;20056;-82
2023/12/30 09:36:58;;;;;;;12.65;4.15;;;;;;;11.36;83.83;100667.41;4950357;29;20048;-82
2023/12/30 09:39:24;;;;;;;15.02;4.40;;;;;;;11.39;83.70;100673.16;4941712;29;20103;-82
2023/12/30 09:41:53;;;;;;;9.93;3.70;;;;;;;11.48;83.98;100672.22;4948974;29;20089;-82
2023/12/30 09:44:22;;;;;;;16.10;4.75;;;;;;;11.32;83.92;100671.38;4938856;29;20430;-81
2023/12/30 09:46:50;;;;;;;14.52;4.72;;;;;;;11.40;83.39;100664.31;4947576;29;20130;-82
2023/12/30 09:49:21;;;;;;;12.27;4.32;;;;;;;11.46;83.09;100663.69;4951238;29;20134;-81
2023/12/30 09:51:47;;;;;;;12.70;4.45;;;;;;;11.50;82.93;100667.63;4938744;29;20086;-80
2023/12/30 09:54:14;;;;;;;14.18;4.18;;;;;;;11.56;83.18;100674.84;4935108;29;20103;-81
2023/12/30 09:56:41;;;;;;;13.70;4.50;;;;;;;11.71;82.52;100658.50;4937587;29;20054;-79
2023/12/30 09:59:08;;;;;;;14.07;4.82;;;;;;;-142.43;100.00;63430.59;4933500;29;20052;-80
2023/12/30 10:01:35;;;;;;;13.52;4.63;;;;;;;-142.43;100.00;63430.59;4939664;29;20139;-80
2023/12/30 10:04:03;;;;;;;10.05;3.75;;;;;;;-142.43;100.00;63430.59;4934895;29;20123;-80
2023/12/30 10:06:35;;;;;;;16.23;5.55;;;;;;;-142.43;100.00;63430.59;4935975;29;20056;-80
2023/12/30 10:09:01;;;;;;;14.70;4.45;;;;;;;-142.43;100.00;63430.59;4931612;29;20071;-81
2023/12/30 10:11:28;;;;;;;14.85;4.10;;;;;;;-142.43;100.00;63430.59;4937900;29;20150;-82
2023/12/30 10:13:55;;;;;;;10.77;4.90;;;;;;;-142.43;100.00;63430.59;4938451;29;20047;-81
2023/12/30 10:16:21;;;;;;;15.65;4.43;;;;;;;-142.43;100.00;63430.59;4936983;29;20051;-79
2023/12/30 10:18:48;;;;;;;11.20;4.10;;;;;;;-142.43;100.00;63430.59;4938292;29;20125;-80
2023/12/30 10:21:17;;;;;;;18.83;4.80;;;;;;;-142.43;100.00;63430.59;4939153;29;20430;-81
2023/12/30 10:23:48;;;;;;;17.52;4.15;;;;;;;-142.43;100.00;63430.59;4941000;29;20052;-81
2023/12/30 10:26:14;;;;;;;14.82;4.63;;;;;;;-142.43;100.00;63430.59;4940696;29;20052;-81
2023/12/30 10:28:41;;;;;;;12.52;4.65;;;;;;;-142.43;100.00;63430.59;4939837;29;20475;-80
2023/12/30 10:31:08;;;;;;;14.93;4.53;;;;;;;-142.43;100.00;63430.59;4941476;29;20043;-80
2023/12/30 10:33:36;;;;;;;15.00;4.38;;;;;;;-142.43;100.00;63430.59;4938657;29;20087;-81
2023/12/30 10:36:06;;;;;;;18.63;5.22;;;;;;;-142.43;100.00;63430.59;4944435;29;20086;-80
2023/12/30 10:38:33;;;;;;;17.08;4.20;;;;;;;-142.43;100.00;63430.59;4948790;29;20055;-81
2023/12/30 10:41:01;;;;;;;11.82;5.20;;;;;;;-142.43;100.00;63430.59;4950406;29;20073;-81
2023/12/30 10:43:27;;;;;;;16.30;5.13;;;;;;;-142.43;100.00;63430.59;4948871;29;20044;-81
2023/12/30 10:45:57;;;;;;;10.63;3.80;;;;;;;-142.43;100.00;63430.59;4939331;29;20079;-82
2023/12/30 10:48:28;;;;;;;9.50;4.15;;;;;;;-142.43;100.00;63430.59;4939284;29;20058;-81
2023/12/30 10:50:57;;;;;;;10.98;3.90;;;;;;;-142.43;100.00;63430.59;4936200;29;20042;-80
2023/12/30 10:53:30;;;;;;;13.55;4.60;;;;;;;-142.43;100.00;63430.59;4936014;29;20080;-79
2023/12/30 10:56:01;;;;;;;12.45;4.07;;;;;;;-142.43;100.00;63430.59;4936469;29;20084;-81
2023/12/30 10:58:33;;;;;;;11.00;3.95;;;;;;;-142.43;100.00;63430.59;4934652;29;20044;-81
2023/12/30 11:01:02;;;;;;;16.45;3.47;;;;;;;-142.43;100.00;63430.59;4936994;29;20063;-80
2023/12/30 11:03:31;;;;;;;12.68;3.72;;;;;;;-142.43;100.00;63430.59;4936803;29;20082;-80
2023/12/30 11:06:04;;;;;;;15.85;4.82;;;;;;;-142.43;100.00;63430.59;4938336;29;20558;-80
2023/12/30 11:08:31;;;;;;;15.95;4.15;;;;;;;-142.43;100.00;63430.59;4935492;29;20138;-80
2023/12/30 11:10:59;;;;;;;14.32;4.00;;;;;;;-142.43;100.00;63430.59;4944515;29;20112;-80
2023/12/30 11:13:27;;;;;;;12.82;3.80;;;;;;;-142.43;100.00;63430.59;4953311;29;20044;-80
2023/12/30 11:15:55;;;;;;;7.93;3.25;;;;;;;-142.43;100.00;63430.59;4954481;29;20056;-80